Time;durP1;ratioP1;P1;durP2;ratioP2;P2;SDS_P1;SDS_P2;PMS_P1;PMS_P2;Temp;Humidity;BMP_temperature;BMP_pressure;BME280_temperature;BME280_humidity;BME280_pressure;Samples;Min_cycle;Max_cycle;Signal;HPM_P1;HPM_P2
2021/12/22 00:01:46;;;;;;;9.80;5.57;;;0.20;99.90;;;;;;5032903;28;20567;-72
2021/12/22 00:04:12;;;;;;;9.27;5.30;;;0.20;99.90;;;;;;5032705;28;20511;-71
2021/12/22 00:06:38;;;;;;;7.63;5.10;;;0.20;99.90;;;;;;5033200;28;20235;-70
2021/12/22 00:09:05;;;;;;;6.07;4.40;;;0.10;99.90;;;;;;5033570;28;20239;-71
2021/12/22 00:11:31;;;;;;;12.47;5.43;;;0.10;99.90;;;;;;5028592;28;20225;-70
2021/12/22 00:13:57;;;;;;;8.10;4.97;;;0.10;99.90;;;;;;4977530;28;20564;-71
2021/12/22 00:16:22;;;;;;;17.40;6.20;;;0.10;99.90;;;;;;4993716;28;20225;-71
2021/12/22 00:18:48;;;;;;;7.17;4.07;;;0.10;99.90;;;;;;4994345;28;20229;-70
2021/12/22 00:21:14;;;;;;;6.07;4.70;;;0.10;99.90;;;;;;4994000;28;20225;-68
2021/12/22 00:23:40;;;;;;;8.20;5.00;;;0.00;99.90;;;;;;5012162;28;20298;-70
2021/12/22 00:26:06;;;;;;;5.30;4.10;;;0.00;99.90;;;;;;5015903;28;20455;-70
2021/12/22 00:28:32;;;;;;;7.30;5.17;;;0.00;99.90;;;;;;5028812;28;20470;-71
2021/12/22 00:31:01;;;;;;;8.53;5.00;;;0.00;99.90;;;;;;5013339;28;20225;-70
2021/12/22 00:33:32;;;;;;;9.33;5.00;;;0.00;99.90;;;;;;5013017;28;20451;-69
2021/12/22 00:35:57;;;;;;;8.30;4.70;;;0.00;99.90;;;;;;5029716;28;20452;-71
2021/12/22 00:38:23;;;;;;;8.70;5.13;;;0.00;99.90;;;;;;5030599;28;21029;-71
2021/12/22 00:40:52;;;;;;;9.00;4.63;;;0.00;99.90;;;;;;5029736;28;20274;-71
2021/12/22 00:43:17;;;;;;;7.13;4.50;;;0.00;99.90;;;;;;5029405;28;20232;-70
2021/12/22 00:45:43;;;;;;;6.97;4.73;;;0.00;99.90;;;;;;5029225;28;20497;-70
2021/12/22 00:48:10;;;;;;;6.20;4.07;;;0.00;99.90;;;;;;5030744;28;20228;-69
2021/12/22 00:50:39;;;;;;;5.00;3.80;;;0.00;99.90;;;;;;5011832;28;20229;-69
2021/12/22 00:53:05;;;;;;;4.90;4.47;;;0.00;99.90;;;;;;5029217;28;20451;-68
2021/12/22 00:55:31;;;;;;;8.40;4.70;;;-0.10;99.90;;;;;;5028559;28;20838;-68
2021/12/22 00:57:57;;;;;;;5.77;4.37;;;-0.10;99.90;;;;;;5028683;28;20458;-70
2021/12/22 01:00:25;;;;;;;9.60;5.07;;;-0.10;99.90;;;;;;5020200;28;20545;-70
2021/12/22 01:02:51;;;;;;;5.37;4.47;;;-0.10;99.90;;;;;;5032137;28;20232;-70
2021/12/22 01:05:17;;;;;;;11.10;4.63;;;-0.10;99.90;;;;;;5050114;28;20878;-70
2021/12/22 01:07:45;;;;;;;9.60;5.37;;;-0.10;99.90;;;;;;5032257;28;20450;-70
2021/12/22 01:10:12;;;;;;;10.23;5.70;;;-0.10;99.90;;;;;;5025511;28;20451;-70
2021/12/22 01:12:38;;;;;;;8.63;4.80;;;-0.10;99.90;;;;;;5029429;28;20529;-69
2021/12/22 01:15:07;;;;;;;10.63;4.70;;;-0.10;99.90;;;;;;5027847;28;20522;-71
2021/12/22 01:17:43;;;;;;;5.07;4.23;;;-0.20;99.90;;;;;;5028602;28;20462;-68
2021/12/22 01:20:30;;;;;;;7.70;4.77;;;-0.20;99.90;;;;;;5011213;28;20498;-70
2021/12/22 01:23:02;;;;;;;6.33;4.43;;;-0.20;99.90;;;;;;5000544;28;20476;-70
2021/12/22 01:25:35;;;;;;;4.97;3.90;;;-0.20;99.90;;;;;;5035351;28;20913;-70
2021/12/22 01:28:01;;;;;;;6.63;4.10;;;-0.20;99.90;;;;;;5028627;28;20466;-71
2021/12/22 01:30:29;;;;;;;8.23;4.27;;;-0.20;99.90;;;;;;5029433;28;20459;-70
2021/12/22 01:32:58;;;;;;;5.87;3.70;;;-0.30;99.90;;;;;;5029878;28;20251;-70
2021/12/22 01:35:27;;;;;;;3.57;2.60;;;-0.30;99.90;;;;;;5011901;28;20459;-69
2021/12/22 01:37:53;;;;;;;8.03;4.30;;;-0.30;99.90;;;;;;5028719;28;20460;-70
2021/12/22 01:40:20;;;;;;;8.70;4.60;;;-0.30;99.90;;;;;;5028073;28;20459;-70
2021/12/22 01:42:47;;;;;;;6.17;3.80;;;-0.30;99.90;;;;;;5012086;28;20495;-70
2021/12/22 01:45:31;;;;;;;8.07;4.23;;;-0.40;99.90;;;;;;5028816;28;20468;-70
2021/12/22 01:50:48;;;;;;;10.40;4.67;;;-0.40;99.90;;;;;;5028603;28;20447;-70
2021/12/22 01:53:20;;;;;;;8.63;4.40;;;-0.40;99.90;;;;;;4995894;28;20562;-70
2021/12/22 01:56:25;;;;;;;6.27;3.73;;;-0.40;99.90;;;;;;5011817;28;20471;-70
2021/12/22 01:58:54;;;;;;;8.43;4.07;;;-0.40;99.90;;;;;;5020807;28;20493;-70
2021/12/22 02:01:20;;;;;;;10.57;4.43;;;-0.50;99.90;;;;;;5030996;28;20473;-69
2021/12/22 02:03:48;;;;;;;5.67;3.63;;;-0.50;99.90;;;;;;5031149;28;20504;-70
2021/12/22 02:06:14;;;;;;;10.83;3.90;;;-0.50;99.90;;;;;;5031772;28;20465;-69
2021/12/22 02:08:43;;;;;;;7.00;4.97;;;-0.50;99.90;;;;;;5031480;28;20455;-70
2021/12/22 02:11:10;;;;;;;6.53;4.23;;;-0.60;99.90;;;;;;5017120;28;20474;-68
2021/12/22 02:13:40;;;;;;;9.40;4.73;;;-0.60;99.90;;;;;;5011493;28;20490;-70
2021/12/22 02:16:11;;;;;;;7.23;4.50;;;-0.60;99.90;;;;;;5012154;28;20462;-70
2021/12/22 02:18:39;;;;;;;5.33;4.33;;;-0.60;99.90;;;;;;5011497;28;20463;-68
2021/12/22 02:21:06;;;;;;;5.87;4.10;;;-0.60;99.90;;;;;;5012129;28;20903;-70
2021/12/22 02:23:32;;;;;;;7.30;4.10;;;-0.60;99.90;;;;;;5019295;28;20470;-69
2021/12/22 02:26:06;;;;;;;5.63;3.67;;;-0.60;99.90;;;;;;5044689;28;20592;-69
2021/12/22 02:28:35;;;;;;;6.13;4.47;;;-0.70;99.90;;;;;;5034679;28;20504;-69
2021/12/22 02:31:01;;;;;;;6.97;4.97;;;-0.70;99.90;;;;;;5034719;28;20478;-70
2021/12/22 02:33:37;;;;;;;7.50;4.00;;;-0.70;99.90;;;;;;5034775;28;20458;-70
2021/12/22 02:36:09;;;;;;;5.30;3.83;;;-0.60;99.90;;;;;;5053152;28;20454;-70
2021/12/22 02:38:40;;;;;;;7.77;4.80;;;-0.70;99.90;;;;;;5034166;28;20482;-69
2021/12/22 02:41:10;;;;;;;5.33;3.67;;;-0.70;99.90;;;;;;5051977;28;20533;-68
2021/12/22 02:43:45;;;;;;;5.53;3.60;;;-0.70;99.90;;;;;;5051187;28;20470;-69
2021/12/22 02:46:23;;;;;;;5.77;3.70;;;-0.70;99.90;;;;;;5035467;28;20450;-70
2021/12/22 02:48:49;;;;;;;5.73;3.80;;;-0.70;99.90;;;;;;5051240;28;20528;-70
2021/12/22 02:51:15;;;;;;;8.80;3.63;;;-0.70;99.90;;;;;;5034580;28;20506;-68
2021/12/22 02:53:48;;;;;;;4.73;3.67;;;-0.70;99.90;;;;;;5034537;28;20219;-69
2021/12/22 03:01:52;;;;;;;5.17;3.40;;;-0.70;99.90;;;;;;5050619;28;20446;-69
2021/12/22 03:04:22;;;;;;;5.43;3.20;;;-0.70;99.90;;;;;;5034283;28;20479;-69
2021/12/22 03:06:59;;;;;;;5.27;3.87;;;-0.80;99.90;;;;;;5017502;28;20462;-69
2021/12/22 03:09:29;;;;;;;4.50;3.07;;;-0.80;99.90;;;;;;4998956;28;20463;-70
2021/12/22 03:12:04;;;;;;;5.30;3.07;;;-0.80;99.90;;;;;;5034360;28;20910;-70
2021/12/22 03:14:30;;;;;;;5.87;4.20;;;-0.80;99.90;;;;;;5033758;28;20473;-68
2021/12/22 03:16:57;;;;;;;7.47;4.43;;;-0.80;99.90;;;;;;5034280;28;20462;-69
2021/12/22 03:19:29;;;;;;;6.93;4.30;;;-0.80;99.90;;;;;;5027448;28;20545;-70
2021/12/22 03:22:04;;;;;;;6.73;4.10;;;-0.80;99.90;;;;;;5019956;28;20535;-70
2021/12/22 03:24:35;;;;;;;7.90;4.03;;;-0.90;99.90;;;;;;5020000;28;20499;-67
2021/12/22 03:27:03;;;;;;;5.70;4.10;;;-0.90;99.90;;;;;;5032294;28;20463;-69
2021/12/22 03:29:30;;;;;;;9.07;3.30;;;-0.90;99.90;;;;;;5014227;28;20460;-70
2021/12/22 03:31:56;;;;;;;8.10;4.00;;;-0.90;99.90;;;;;;5014500;28;20544;-69
2021/12/22 03:34:22;;;;;;;8.47;4.10;;;-0.90;99.90;;;;;;5031938;28;20459;-71
2021/12/22 03:36:48;;;;;;;7.53;4.20;;;-0.90;99.90;;;;;;5031746;28;20224;-69
2021/12/22 03:39:15;;;;;;;4.83;4.17;;;-0.90;99.90;;;;;;5014818;28;20240;-70
2021/12/22 03:41:42;;;;;;;5.47;4.00;;;-0.90;99.90;;;;;;5013979;28;20448;-67
2021/12/22 03:44:08;;;;;;;9.50;4.10;;;-0.90;99.90;;;;;;5014242;28;20471;-69
2021/12/22 03:46:35;;;;;;;8.27;3.43;;;-1.00;99.90;;;;;;5013859;28;20459;-69
2021/12/22 03:49:02;;;;;;;7.27;3.33;;;-1.00;99.90;;;;;;5014469;28;20474;-71
2021/12/22 03:51:28;;;;;;;4.27;3.27;;;-1.00;99.90;;;;;;5014010;28;20493;-71
2021/12/22 03:53:54;;;;;;;6.93;3.77;;;-1.00;99.90;;;;;;5014196;28;20459;-73
2021/12/22 03:56:19;;;;;;;3.93;3.30;;;-1.00;99.90;;;;;;5013826;28;20486;-71
2021/12/22 03:58:45;;;;;;;3.63;3.30;;;-1.00;99.90;;;;;;5031557;28;20459;-69
2021/12/22 04:01:11;;;;;;;7.17;3.93;;;-1.00;99.90;;;;;;5030547;28;20228;-71
2021/12/22 04:03:39;;;;;;;4.30;3.40;;;-1.00;99.90;;;;;;5029529;28;20240;-71
2021/12/22 04:06:05;;;;;;;4.17;2.93;;;-1.10;99.90;;;;;;5013954;28;20217;-71
2021/12/22 04:08:31;;;;;;;5.87;3.80;;;-1.00;99.90;;;;;;5031500;28;20455;-71
2021/12/22 04:10:57;;;;;;;7.27;4.20;;;-1.10;99.90;;;;;;5013041;28;20543;-71
2021/12/22 04:13:23;;;;;;;9.87;4.30;;;-1.10;99.90;;;;;;5030563;28;20605;-70
2021/12/22 04:15:49;;;;;;;7.00;4.00;;;-1.10;99.90;;;;;;5014117;28;20248;-71
2021/12/22 04:18:16;;;;;;;3.13;2.67;;;-1.10;99.90;;;;;;5030414;28;20297;-71
2021/12/22 04:20:41;;;;;;;6.03;3.70;;;-1.10;99.90;;;;;;5013788;28;21025;-71
2021/12/22 04:23:07;;;;;;;5.20;3.87;;;-1.10;99.90;;;;;;5037504;28;20509;-69
2021/12/22 04:25:35;;;;;;;4.50;3.67;;;-1.10;99.90;;;;;;5024725;28;20223;-68
2021/12/22 04:28:05;;;;;;;6.90;4.03;;;-1.20;99.90;;;;;;5047534;28;20220;-69
2021/12/22 04:30:33;;;;;;;4.77;3.90;;;-1.20;99.90;;;;;;5028847;28;20443;-70
2021/12/22 04:33:03;;;;;;;7.93;4.67;;;-1.20;99.90;;;;;;5030724;28;20557;-71
2021/12/22 04:35:28;;;;;;;5.10;4.03;;;-1.20;99.90;;;;;;5012951;28;20467;-71
2021/12/22 04:37:55;;;;;;;9.90;5.40;;;-1.20;99.90;;;;;;5013484;28;20477;-70
2021/12/22 04:40:21;;;;;;;5.23;4.03;;;-1.20;99.90;;;;;;5012570;28;20221;-71
2021/12/22 04:42:46;;;;;;;7.40;5.13;;;-1.20;99.90;;;;;;5009650;28;20463;-70
2021/12/22 04:45:14;;;;;;;8.50;5.47;;;-1.20;99.90;;;;;;5030856;28;20232;-71
2021/12/22 04:47:41;;;;;;;8.13;4.70;;;-1.30;99.90;;;;;;5012940;28;20255;-71
2021/12/22 04:50:13;;;;;;;8.20;4.00;;;-1.30;99.90;;;;;;5011916;28;20471;-72
2021/12/22 04:52:48;;;;;;;8.63;4.50;;;-1.30;99.90;;;;;;5012363;28;20469;-72
2021/12/22 04:55:14;;;;;;;10.90;4.70;;;-1.30;99.90;;;;;;5029293;28;20470;-72
2021/12/22 04:57:40;;;;;;;7.10;4.10;;;-1.30;99.90;;;;;;5029087;28;20454;-71
2021/12/22 05:00:10;;;;;;;7.23;4.43;;;-1.30;99.90;;;;;;5012528;28;20542;-70
2021/12/22 05:02:36;;;;;;;7.37;4.37;;;-1.30;99.90;;;;;;5028717;28;20263;-70
2021/12/22 05:05:02;;;;;;;8.37;4.77;;;-1.30;99.90;;;;;;5013113;28;20509;-70
2021/12/22 05:07:28;;;;;;;16.50;5.90;;;-1.30;99.90;;;;;;5012423;28;20455;-71
2021/12/22 05:09:54;;;;;;;10.53;6.53;;;-1.30;99.90;;;;;;5035148;28;20560;-70
2021/12/22 05:12:19;;;;;;;10.10;6.37;;;-1.40;99.90;;;;;;5029765;28;20244;-71
2021/12/22 05:14:49;;;;;;;11.07;6.17;;;-1.40;99.90;;;;;;5012502;28;20224;-69
2021/12/22 05:17:22;;;;;;;11.63;5.63;;;-1.40;99.90;;;;;;5013050;28;20749;-71
2021/12/22 05:19:47;;;;;;;8.60;5.60;;;-1.40;99.90;;;;;;5012565;28;20458;-71
2021/12/22 05:22:13;;;;;;;10.87;5.27;;;-1.40;99.90;;;;;;5030520;28;20459;-72
2021/12/22 05:24:39;;;;;;;8.37;5.20;;;-1.40;99.90;;;;;;5020381;28;20292;-70
2021/12/22 05:27:13;;;;;;;8.47;5.40;;;-1.40;99.90;;;;;;5012811;28;20455;-70
2021/12/22 05:29:39;;;;;;;9.90;6.70;;;-1.40;99.90;;;;;;5011810;28;20554;-69
2021/12/22 05:32:06;;;;;;;13.63;5.57;;;-1.40;99.90;;;;;;5012399;28;20534;-70
2021/12/22 05:34:32;;;;;;;13.57;6.40;;;-1.40;99.90;;;;;;5012390;28;20620;-68
2021/12/22 05:36:59;;;;;;;11.83;4.17;;;-1.40;99.90;;;;;;5030318;28;20486;-70
2021/12/22 05:39:25;;;;;;;6.80;4.73;;;-1.50;99.90;;;;;;5011671;28;20467;-71
2021/12/22 05:41:51;;;;;;;6.90;5.20;;;-1.50;99.90;;;;;;5012301;28;20465;-71
2021/12/22 05:44:16;;;;;;;12.13;6.43;;;-1.50;99.90;;;;;;5028557;28;20468;-70
2021/12/22 05:46:42;;;;;;;7.87;5.30;;;-1.50;99.90;;;;;;5012025;28;20230;-70
2021/12/22 05:49:08;;;;;;;8.37;5.80;;;-1.50;99.90;;;;;;5012422;28;20252;-69
2021/12/22 05:51:34;;;;;;;9.10;5.97;;;-1.50;99.90;;;;;;5028729;28;20212;-71
2021/12/22 05:54:00;;;;;;;7.53;5.07;;;-1.60;99.90;;;;;;5029936;28;20234;-71
2021/12/22 05:56:28;;;;;;;5.73;4.20;;;-1.50;99.90;;;;;;5011683;28;20474;-70
2021/12/22 05:58:54;;;;;;;7.50;4.60;;;-1.50;99.90;;;;;;5030407;28;20477;-70
2021/12/22 06:01:20;;;;;;;5.93;3.77;;;-1.60;99.90;;;;;;5016193;28;20455;-70
2021/12/22 06:03:45;;;;;;;7.27;4.57;;;-1.50;99.90;;;;;;5015921;28;20220;-71
2021/12/22 06:06:11;;;;;;;5.90;4.07;;;-1.60;99.90;;;;;;5016220;28;20327;-70
2021/12/22 06:08:37;;;;;;;5.47;4.37;;;-1.60;99.90;;;;;;5032547;28;20275;-69
2021/12/22 06:11:03;;;;;;;3.83;3.17;;;-1.60;99.90;;;;;;5015497;28;20997;-70
2021/12/22 06:13:32;;;;;;;9.30;4.60;;;-1.60;99.90;;;;;;5026385;28;20216;-70
2021/12/22 06:15:57;;;;;;;6.10;4.57;;;-1.60;99.90;;;;;;5016218;28;20470;-71
2021/12/22 06:18:23;;;;;;;6.33;3.60;;;-1.60;99.90;;;;;;5015832;28;20602;-70
2021/12/22 06:20:49;;;;;;;7.50;5.00;;;-1.60;99.90;;;;;;5032576;28;20216;-70
2021/12/22 06:23:24;;;;;;;4.73;3.67;;;-1.60;99.90;;;;;;5015025;28;20687;-71
2021/12/22 06:25:50;;;;;;;9.13;4.83;;;-1.60;99.90;;;;;;5028805;28;20251;-70
2021/12/22 06:28:16;;;;;;;15.90;5.10;;;-1.60;99.90;;;;;;5028455;28;20462;-71
2021/12/22 06:30:42;;;;;;;7.17;5.33;;;-1.60;99.90;;;;;;5032034;28;20443;-70
2021/12/22 06:33:07;;;;;;;10.40;6.03;;;-1.60;99.90;;;;;;5015110;28;20266;-71
2021/12/22 06:35:33;;;;;;;17.27;6.90;;;-1.70;99.90;;;;;;5014919;28;20299;-68
2021/12/22 06:37:59;;;;;;;18.43;9.33;;;-1.70;99.90;;;;;;5015731;28;20228;-71
2021/12/22 06:40:24;;;;;;;11.27;5.83;;;-1.70;99.90;;;;;;5015288;28;20251;-71
2021/12/22 06:42:50;;;;;;;16.77;8.20;;;-1.70;99.90;;;;;;5032560;28;20235;-71
2021/12/22 06:45:16;;;;;;;9.47;5.93;;;-1.70;99.90;;;;;;5015237;28;20216;-71
2021/12/22 06:47:42;;;;;;;14.07;7.20;;;-1.70;99.90;;;;;;5014774;28;20217;-70
2021/12/22 06:50:09;;;;;;;10.60;6.17;;;-1.70;99.90;;;;;;5031958;28;20220;-71
2021/12/22 06:52:35;;;;;;;8.00;5.43;;;-1.70;99.90;;;;;;5014898;28;20455;-71
2021/12/22 06:55:00;;;;;;;12.00;4.93;;;-1.70;99.90;;;;;;5029849;28;20459;-70
2021/12/22 06:57:29;;;;;;;6.67;4.77;;;-1.70;99.90;;;;;;5031258;28;20216;-71
2021/12/22 06:59:56;;;;;;;7.87;4.90;;;-1.80;99.90;;;;;;5015594;28;20234;-71
2021/12/22 07:02:24;;;;;;;7.50;5.27;;;-1.70;99.90;;;;;;5014697;28;20454;-70
2021/12/22 07:04:50;;;;;;;11.73;5.97;;;-1.80;99.90;;;;;;5032078;28;20478;-71
2021/12/22 07:07:15;;;;;;;9.43;6.57;;;-1.80;99.90;;;;;;5015192;28;20455;-71
2021/12/22 07:09:41;;;;;;;16.67;7.60;;;-1.80;99.90;;;;;;5031028;28;20220;-70
2021/12/22 07:12:09;;;;;;;14.60;6.47;;;-1.80;99.90;;;;;;5031536;28;20280;-70
2021/12/22 07:14:38;;;;;;;14.87;7.27;;;-1.80;99.90;;;;;;5013844;28;20274;-69
2021/12/22 07:17:04;;;;;;;10.77;6.80;;;-1.90;99.90;;;;;;5014394;28;20538;-70
2021/12/22 07:19:29;;;;;;;12.33;6.00;;;-1.90;99.90;;;;;;5014326;28;20542;-71
2021/12/22 07:21:55;;;;;;;20.10;8.10;;;-1.90;99.90;;;;;;5032631;28;20315;-71
2021/12/22 07:24:22;;;;;;;15.60;8.90;;;-1.90;99.90;;;;;;5005913;28;20224;-71
2021/12/22 07:26:48;;;;;;;16.30;9.17;;;-1.90;99.90;;;;;;5030157;28;20220;-70
2021/12/22 07:29:14;;;;;;;11.27;6.33;;;-1.90;99.90;;;;;;5013863;28;20467;-70
2021/12/22 07:31:40;;;;;;;10.40;7.10;;;-1.90;99.90;;;;;;5013717;28;20320;-70
2021/12/22 07:34:20;;;;;;;16.77;7.60;;;-1.90;99.90;;;;;;5012696;28;20260;-69
2021/12/22 07:36:54;;;;;;;14.40;7.93;;;-2.00;99.90;;;;;;4994817;28;20220;-68
2021/12/22 07:39:20;;;;;;;10.33;6.07;;;-2.00;99.90;;;;;;4994632;28;20975;-71
2021/12/22 07:41:45;;;;;;;14.37;6.43;;;-1.90;99.90;;;;;;5011022;28;20460;-69
2021/12/22 07:44:12;;;;;;;20.43;7.63;;;-1.90;99.90;;;;;;4994875;28;20237;-70
2021/12/22 07:46:38;;;;;;;15.23;8.27;;;-1.90;99.90;;;;;;5002876;28;20467;-69
2021/12/22 07:49:03;;;;;;;6.90;5.87;;;-1.90;99.90;;;;;;5009450;28;20218;-70
2021/12/22 07:51:29;;;;;;;13.47;9.03;;;-1.90;99.90;;;;;;5030077;28;20219;-71
2021/12/22 07:53:55;;;;;;;10.63;7.33;;;-1.90;99.90;;;;;;5032011;28;20255;-71
2021/12/22 07:56:20;;;;;;;12.73;7.97;;;-1.90;99.90;;;;;;5013248;28;20221;-71
2021/12/22 07:58:48;;;;;;;20.43;8.23;;;-1.90;99.90;;;;;;4994197;28;20276;-69
2021/12/22 08:01:14;;;;;;;14.80;7.50;;;-1.90;99.90;;;;;;5013870;28;20221;-70
2021/12/22 08:03:39;;;;;;;17.80;9.43;;;-1.90;99.90;;;;;;5031386;28;20487;-70
2021/12/22 08:06:05;;;;;;;15.83;9.07;;;-1.90;99.90;;;;;;5014120;28;20220;-69
2021/12/22 08:08:31;;;;;;;13.20;7.77;;;-1.90;99.90;;;;;;5013203;28;20697;-71
2021/12/22 08:10:56;;;;;;;10.93;7.23;;;-1.90;99.90;;;;;;5036752;28;20213;-70
2021/12/22 08:13:22;;;;;;;11.93;7.20;;;-1.90;99.90;;;;;;5006417;28;20217;-71
2021/12/22 08:15:48;;;;;;;12.40;8.43;;;-1.90;99.90;;;;;;5010479;28;20220;-70
2021/12/22 08:18:13;;;;;;;11.73;7.87;;;-1.90;99.90;;;;;;5016540;28;20589;-71
2021/12/22 08:20:39;;;;;;;17.53;9.70;;;-1.90;99.90;;;;;;5013242;28;20231;-69
2021/12/22 08:23:05;;;;;;;35.70;16.07;;;-1.90;99.90;;;;;;5010044;28;20225;-70
2021/12/22 08:25:32;;;;;;;25.73;13.20;;;-1.90;99.90;;;;;;5040325;28;20239;-71
2021/12/22 08:27:57;;;;;;;18.10;9.40;;;-1.90;99.90;;;;;;5013116;28;20286;-70
2021/12/22 08:30:23;;;;;;;16.33;8.40;;;-1.90;99.90;;;;;;5012935;28;20455;-70
2021/12/22 08:32:49;;;;;;;12.33;8.00;;;-1.90;99.90;;;;;;5013658;28;20315;-70
2021/12/22 08:35:16;;;;;;;14.43;8.50;;;-1.90;99.90;;;;;;5013320;28;20225;-70
2021/12/22 08:40:27;;;;;;;14.23;7.60;;;-1.90;99.90;;;;;;5028576;28;20543;-70
2021/12/22 08:42:53;;;;;;;14.10;7.50;;;-1.80;99.90;;;;;;5030782;28;20459;-71
2021/12/22 08:45:19;;;;;;;14.40;7.53;;;-1.80;99.90;;;;;;5029449;28;20468;-70
2021/12/22 08:47:45;;;;;;;19.50;8.97;;;-1.70;99.90;;;;;;5030774;28;20236;-71
2021/12/22 08:50:13;;;;;;;16.50;7.93;;;-1.70;99.90;;;;;;5013494;28;20444;-71
2021/12/22 08:52:39;;;;;;;13.63;6.20;;;-1.70;99.90;;;;;;5011959;28;20494;-70
2021/12/22 08:55:05;;;;;;;17.17;7.83;;;-1.70;99.90;;;;;;5029407;28;20455;-71
2021/12/22 08:57:31;;;;;;;16.43;7.00;;;-1.70;99.90;;;;;;5012935;28;20219;-70
2021/12/22 08:59:56;;;;;;;16.87;6.87;;;-1.70;99.90;;;;;;5012977;28;20444;-70
2021/12/22 09:02:22;;;;;;;10.47;6.67;;;-1.60;99.90;;;;;;5028415;28;20323;-70
2021/12/22 09:04:48;;;;;;;13.93;6.50;;;-1.60;99.90;;;;;;5012617;28;20233;-71
2021/12/22 09:07:14;;;;;;;14.60;6.23;;;-1.60;99.90;;;;;;5012744;28;20251;-71
2021/12/22 09:09:39;;;;;;;14.53;8.50;;;-1.60;99.90;;;;;;5028901;28;20216;-67
2021/12/22 09:12:06;;;;;;;9.50;6.70;;;-1.50;99.90;;;;;;5028998;28;20307;-70
2021/12/22 09:14:32;;;;;;;12.60;6.20;;;-1.50;99.90;;;;;;5011786;28;20233;-68
2021/12/22 09:16:58;;;;;;;7.23;5.70;;;-1.50;99.90;;;;;;5012435;28;20546;-72
2021/12/22 09:19:24;;;;;;;12.87;6.60;;;-1.50;99.90;;;;;;5030051;28;21002;-72
2021/12/22 09:21:51;;;;;;;9.67;5.60;;;-1.40;99.90;;;;;;5028494;28;20224;-72
2021/12/22 09:24:17;;;;;;;13.80;6.77;;;-1.40;99.90;;;;;;5034097;28;20463;-72
2021/12/22 09:26:43;;;;;;;7.00;4.80;;;-1.40;99.90;;;;;;5012513;28;20459;-71
2021/12/22 09:29:10;;;;;;;11.30;6.50;;;-1.30;99.90;;;;;;4996484;28;20456;-72
2021/12/22 09:31:35;;;;;;;15.50;7.70;;;-1.30;99.90;;;;;;5011883;28;20475;-71
2021/12/22 09:34:02;;;;;;;11.10;6.27;;;-1.30;99.90;;;;;;5012056;28;20513;-72
2021/12/22 09:36:28;;;;;;;11.17;5.60;;;-1.30;99.90;;;;;;5011653;28;20459;-72
2021/12/22 09:38:54;;;;;;;13.47;5.77;;;-1.20;99.90;;;;;;5012765;28;20459;-72
2021/12/22 09:41:20;;;;;;;13.20;6.20;;;-1.20;99.90;;;;;;5029514;28;20459;-73
2021/12/22 09:43:46;;;;;;;7.60;4.93;;;-1.20;99.90;;;;;;5011910;28;20255;-72
2021/12/22 09:46:16;;;;;;;14.63;7.10;;;-1.20;99.90;;;;;;5012609;28;20225;-72
2021/12/22 09:53:53;;;;;;;13.20;6.50;;;-1.00;99.90;;;;;;5029256;28;20866;-72
2021/12/22 09:56:25;;;;;;;10.53;6.30;;;-1.00;99.90;;;;;;5012115;28;20461;-70
2021/12/22 09:58:51;;;;;;;6.53;5.20;;;-0.90;99.90;;;;;;5021481;28;20879;-72
2021/12/22 10:01:23;;;;;;;12.53;6.17;;;-0.90;99.90;;;;;;5012372;28;20455;-72
2021/12/22 10:03:54;;;;;;;6.67;4.93;;;-0.90;99.90;;;;;;5028375;28;20549;-73
2021/12/22 10:06:22;;;;;;;6.60;5.63;;;-0.80;99.90;;;;;;5011506;28;20479;-71
2021/12/22 10:09:06;;;;;;;15.57;7.03;;;-0.80;99.90;;;;;;5026738;28;20513;-73
2021/12/22 10:11:34;;;;;;;9.10;6.40;;;-0.70;99.90;;;;;;5029611;28;20533;-73
2021/12/22 10:14:00;;;;;;;12.83;6.30;;;-0.70;99.90;;;;;;5032216;28;20844;-73
2021/12/22 10:16:28;;;;;;;13.67;6.70;;;-0.60;99.90;;;;;;5031003;28;20459;-73
2021/12/22 10:19:06;;;;;;;12.97;8.40;;;-0.60;99.90;;;;;;5012268;28;20461;-73
2021/12/22 10:21:33;;;;;;;14.07;7.07;;;-0.50;99.90;;;;;;5011414;28;20458;-72
2021/12/22 10:24:02;;;;;;;12.00;7.90;;;-0.50;99.90;;;;;;5020079;28;20517;-73
2021/12/22 10:26:28;;;;;;;20.53;9.90;;;-0.40;99.90;;;;;;5017970;28;20519;-73
2021/12/22 10:28:57;;;;;;;17.63;10.60;;;-0.40;99.90;;;;;;5028587;28;20547;-73
2021/12/22 10:31:40;;;;;;;17.30;8.60;;;-0.40;99.90;;;;;;5011053;28;20594;-72
2021/12/22 10:34:09;;;;;;;18.13;8.60;;;-0.30;99.90;;;;;;5028207;28;20466;-72
2021/12/22 10:36:52;;;;;;;14.77;8.63;;;-0.30;99.90;;;;;;5010954;28;20473;-71
2021/12/22 10:39:36;;;;;;;10.93;7.17;;;-0.20;99.90;;;;;;5025574;28;20452;-71
2021/12/22 10:42:10;;;;;;;15.00;8.10;;;-0.20;99.90;;;;;;4992110;28;20458;-73
2021/12/22 10:44:38;;;;;;;13.80;7.83;;;-0.10;99.90;;;;;;5011619;28;20474;-72
2021/12/22 10:47:19;;;;;;;9.93;6.93;;;-0.10;99.90;;;;;;5012429;28;20554;-73
2021/12/22 10:50:07;;;;;;;11.97;7.80;;;0.00;99.90;;;;;;5032449;28;20459;-73
2021/12/22 10:52:34;;;;;;;9.80;7.33;;;0.00;99.90;;;;;;5032318;28;20538;-72
2021/12/22 10:55:14;;;;;;;9.37;6.13;;;0.10;99.90;;;;;;5015073;28;20513;-73
2021/12/22 10:57:45;;;;;;;10.57;6.80;;;0.20;99.90;;;;;;5014367;28;20473;-72
2021/12/22 11:00:17;;;;;;;16.40;8.00;;;0.20;99.90;;;;;;5015376;28;20462;-72
2021/12/22 11:02:50;;;;;;;13.60;7.20;;;0.20;99.90;;;;;;5022840;28;20456;-74
2021/12/22 11:05:27;;;;;;;12.17;7.30;;;0.20;99.90;;;;;;5014985;28;20470;-73
2021/12/22 11:07:54;;;;;;;20.37;7.93;;;0.30;99.90;;;;;;5032774;28;20451;-73
2021/12/22 11:10:27;;;;;;;14.07;7.90;;;0.30;99.90;;;;;;5022492;28;20454;-71
2021/12/22 11:13:05;;;;;;;14.30;8.17;;;0.30;99.90;;;;;;5052430;28;20473;-73
2021/12/22 11:15:41;;;;;;;11.13;7.53;;;0.40;99.90;;;;;;5033922;28;20451;-73
2021/12/22 11:18:26;;;;;;;16.33;9.47;;;0.40;99.90;;;;;;5041185;28;20930;-72
2021/12/22 11:21:22;;;;;;;23.43;9.40;;;0.50;99.90;;;;;;5028195;28;20497;-73
2021/12/22 11:23:48;;;;;;;16.30;9.07;;;0.50;99.90;;;;;;5033016;28;20462;-73
2021/12/22 11:26:14;;;;;;;14.10;8.57;;;0.60;99.90;;;;;;5030414;28;21116;-73
2021/12/22 11:28:41;;;;;;;12.37;7.10;;;0.60;99.90;;;;;;5013295;28;20631;-72
2021/12/22 11:31:11;;;;;;;12.43;8.37;;;0.60;99.90;;;;;;5013673;28;20467;-72
2021/12/22 11:33:40;;;;;;;16.53;9.00;;;0.70;99.90;;;;;;5031866;28;20456;-73
2021/12/22 11:36:08;;;;;;;14.20;8.30;;;0.70;99.90;;;;;;5014588;28;20482;-73
2021/12/22 11:38:34;;;;;;;9.53;7.00;;;0.80;99.90;;;;;;5013661;28;20467;-73
2021/12/22 11:41:18;;;;;;;13.77;7.47;;;0.90;99.90;;;;;;5013852;28;20509;-73
2021/12/22 11:43:45;;;;;;;12.00;6.43;;;0.90;99.90;;;;;;4997136;28;20236;-73
2021/12/22 11:46:12;;;;;;;11.17;6.77;;;1.00;99.90;;;;;;4997890;28;20538;-73
2021/12/22 11:48:39;;;;;;;14.63;7.60;;;1.10;99.90;;;;;;4995526;28;20545;-73
2021/12/22 11:51:23;;;;;;;13.00;7.40;;;1.10;99.90;;;;;;5013856;28;20455;-73
2021/12/22 11:54:00;;;;;;;14.20;7.70;;;1.10;99.90;;;;;;5019428;28;20987;-73
2021/12/22 11:56:41;;;;;;;9.23;5.87;;;1.10;99.90;;;;;;4994378;28;20457;-73
2021/12/22 11:59:31;;;;;;;10.43;6.97;;;1.20;99.90;;;;;;4995639;28;20456;-72
2021/12/22 12:02:18;;;;;;;13.07;7.10;;;1.30;99.90;;;;;;5027974;28;20448;-73
2021/12/22 12:04:46;;;;;;;11.07;7.77;;;1.40;99.90;;;;;;5029796;28;20468;-73
2021/12/22 12:07:32;;;;;;;15.10;8.53;;;1.40;99.90;;;;;;5014194;28;20455;-71
2021/12/22 12:10:34;;;;;;;9.70;7.13;;;1.40;99.90;;;;;;5013762;28;20459;-73
2021/12/22 12:13:19;;;;;;;11.73;8.60;;;1.40;99.90;;;;;;5011378;28;20466;-73
2021/12/22 12:21:55;;;;;;;21.77;12.73;;;1.50;99.90;;;;;;5007234;28;20466;-73
2021/12/22 12:24:45;;;;;;;28.90;15.47;;;1.60;99.90;;;;;;5030813;28;20471;-74
2021/12/22 12:27:32;;;;;;;23.10;12.73;;;1.60;99.90;;;;;;5029641;28;20451;-73
2021/12/22 12:30:17;;;;;;;24.07;12.90;;;1.70;99.90;;;;;;5028108;28;20454;-73
2021/12/22 12:32:45;;;;;;;27.50;14.30;;;1.80;99.90;;;;;;4995113;28;20475;-74
2021/12/22 12:35:20;;;;;;;;;;;;;;;;;;;;;
2021/12/22 12:38:07;;;;;;;20.57;9.93;;;1.70;99.90;;;;;;5020354;28;20474;-73
2021/12/22 12:40:54;;;;;;;18.83;11.40;;;1.80;99.90;;;;;;5013329;28;20509;-73
2021/12/22 12:43:39;;;;;;;16.67;9.50;;;1.80;99.90;;;;;;5012192;28;20846;-72
2021/12/22 12:46:24;;;;;;;14.17;9.00;;;1.80;99.90;;;;;;5007887;28;20538;-73
2021/12/22 12:49:07;;;;;;;12.83;8.33;;;1.80;99.90;;;;;;5019411;28;20447;-73
2021/12/22 12:51:42;;;;;;;15.27;9.60;;;1.80;99.90;;;;;;5029584;28;20443;-73
2021/12/22 12:54:17;;;;;;;14.27;7.80;;;1.80;99.90;;;;;;5013158;28;20467;-73
2021/12/22 12:56:52;;;;;;;12.93;8.20;;;1.80;99.90;;;;;;5030125;28;20454;-72
2021/12/22 12:59:37;;;;;;;13.50;8.67;;;1.80;99.90;;;;;;5029849;28;20888;-73
2021/12/22 13:02:08;;;;;;;17.73;9.03;;;1.80;99.90;;;;;;5029591;28;20455;-74
2021/12/22 13:04:41;;;;;;;15.60;9.67;;;1.90;99.90;;;;;;5010762;28;20478;-70
2021/12/22 13:07:07;;;;;;;14.47;8.30;;;1.90;99.90;;;;;;5012596;28;20459;-73
2021/12/22 13:09:36;;;;;;;15.53;9.50;;;1.90;99.90;;;;;;5027127;28;20459;-73
2021/12/22 13:12:11;;;;;;;15.53;8.93;;;2.00;99.90;;;;;;5029929;28;20229;-74
2021/12/22 13:17:25;;;;;;;15.23;8.90;;;2.00;99.90;;;;;;5012284;28;20482;-73
2021/12/22 13:19:54;;;;;;;11.93;7.40;;;1.90;99.90;;;;;;5028803;28;20470;-72
2021/12/22 13:22:29;;;;;;;15.73;8.70;;;1.90;99.90;;;;;;5016363;28;20460;-73